KDWH/DWH METAR and TAF weather

Enter ICAO airport designator
Station Type Date Time Source
KDWH METAR 2021/06/24 04:53 UTC NOAA

KDWH 240453Z AUTO 15003KT 10SM BKN021 BKN028 28/25 A3000 RMK AO2 SLP158 T02830250


Station Type Date Time Source
KDWH Decoded METAR 2021/06/24 04:53 UTC NOAA

HOUSTON HOOKS MEMORIAL, TX, United States (KDWH) 30-04N 95-33W 46M
Jun 24, 2021 - 12:53 AM EDT / 2021.06.24 0453 UTC
Wind: from the SSE (150 degrees) at 3 MPH (3 KT):0
Visibility: 10 mile(s):0
Sky conditions: mostly cloudy
Temperature: 82.9 F (28.3 C)
Dew Point: 77.0 F (25.0 C)
Relative Humidity: 82%
Pressure (altimeter): 30 in. Hg (1015 hPa)
ob: KDWH 240453Z AUTO 15003KT 10SM BKN021 BKN028 28/25 A3000 RMK AO2 SLP158 T02830250
cycle: 5

Station Type Date Time Source
KDWH TAF 2017/02/07 15:09 UTC NOAA

TAF
AMD KDWH 071507Z 0715/0812 23010KT P6SM BKN015
TEMPO 0715/0719 SCT015
FM071900 25010KT P6SM SCT025
FM080100 22005KT P6SM SCT250
TEMPO 0807/0809 3SM BR BKN013
FM080900 VRB03KT 2SM BR OVC008

Example: see airport list